Time;durP1;ratioP1;P1;durP2;ratioP2;P2;SDS_P1;SDS_P2;PMS_P1;PMS_P2;Temp;Humidity;BMP_temperature;BMP_pressure;BME280_temperature;BME280_humidity;BME280_pressure;Samples;Min_cycle;Max_cycle;Signal;HPM_P1;HPM_P2
2022/06/20 00:00:59;;;;;;;9.23;1.90;;;23.60;95.80;;;;;;5009610;28;20437;-80
2022/06/20 00:03:31;;;;;;;6.32;2.20;;;23.60;95.90;;;;;;5008826;28;20388;-81
2022/06/20 00:05:57;;;;;;;8.77;3.13;;;23.60;96.00;;;;;;5009307;28;20471;-81
2022/06/20 00:08:23;;;;;;;8.38;2.35;;;23.60;95.80;;;;;;5006910;28;20068;-81
2022/06/20 00:10:50;;;;;;;3.88;1.90;;;23.50;95.80;;;;;;5009584;28;20029;-81
2022/06/20 00:13:26;;;;;;;7.50;2.50;;;23.60;95.80;;;;;;5111164;27;20391;-80
2022/06/20 00:15:55;;;;;;;6.47;2.00;;;23.50;95.70;;;;;;5008975;28;20049;-80
2022/06/20 00:18:21;;;;;;;7.03;1.92;;;23.50;95.80;;;;;;5008646;28;20025;-80
2022/06/20 00:20:47;;;;;;;9.80;2.05;;;23.40;95.90;;;;;;5009063;28;20037;-80
2022/06/20 00:23:12;;;;;;;6.20;2.20;;;23.40;96.00;;;;;;5008048;28;20086;-80
2022/06/20 00:25:39;;;;;;;5.03;2.50;;;23.30;96.20;;;;;;5009336;28;20471;-80
2022/06/20 00:28:05;;;;;;;9.80;2.17;;;23.30;96.50;;;;;;5110799;28;20026;-80
2022/06/20 00:30:31;;;;;;;7.15;2.10;;;23.20;96.40;;;;;;5008614;28;20502;-81
2022/06/20 00:32:57;;;;;;;4.68;2.00;;;23.10;96.70;;;;;;5008944;28;20382;-81
2022/06/20 00:35:23;;;;;;;11.27;2.55;;;23.10;96.60;;;;;;5008866;28;20108;-81
2022/06/20 00:37:50;;;;;;;9.57;2.85;;;23.10;96.60;;;;;;5009810;28;20065;-81
2022/06/20 00:40:53;;;;;;;10.75;2.25;;;23.10;96.80;;;;;;5008772;28;20051;-80
2022/06/20 00:43:33;;;;;;;5.05;1.98;;;23.10;96.80;;;;;;5089429;28;20017;-80
2022/06/20 00:46:03;;;;;;;7.00;2.22;;;23.00;96.70;;;;;;5089159;28;20063;-80
2022/06/20 00:48:45;;;;;;;7.72;2.10;;;22.90;96.80;;;;;;5089780;28;20406;-80
2022/06/20 00:51:21;;;;;;;;;;;22.90;97.10;;;;;;5078598;28;20160;-80
2022/06/20 00:53:57;;;;;;;6.40;1.70;;;22.80;96.90;;;;;;5068948;28;19904;-80
2022/06/20 00:56:33;;;;;;;6.30;1.90;;;22.90;97.20;;;;;;5069967;28;20025;-80
2022/06/20 00:59:07;;;;;;;8.15;1.90;;;22.90;97.00;;;;;;5072875;28;20041;-80
2022/06/20 01:01:38;;;;;;;4.72;2.38;;;22.90;96.90;;;;;;5072384;28;20028;-80
2022/06/20 01:04:10;;;;;;;6.50;1.65;;;22.90;97.00;;;;;;5072790;28;20112;-80
2022/06/20 01:06:40;;;;;;;;;;;22.80;97.20;;;;;;5072031;28;20063;-80
2022/06/20 01:09:08;;;;;;;7.82;1.67;;;22.80;97.30;;;;;;5072723;28;19954;-80
2022/06/20 01:11:48;;;;;;;8.52;1.63;;;22.80;97.30;;;;;;5072618;28;20115;-80
2022/06/20 01:14:27;;;;;;;7.45;2.00;;;22.90;97.10;;;;;;5055626;28;20070;-80
2022/06/20 01:16:58;;;;;;;3.90;1.60;;;22.90;97.10;;;;;;5073975;28;20420;-80
2022/06/20 01:19:44;;;;;;;4.50;1.60;;;22.90;96.90;;;;;;5089735;28;20026;-80
2022/06/20 01:22:37;;;;;;;6.50;2.15;;;23.00;97.00;;;;;;5011784;28;20437;-80
2022/06/20 01:25:20;;;;;;;5.28;1.70;;;22.90;96.70;;;;;;5011271;28;20079;-81
2022/06/20 01:27:48;;;;;;;6.35;2.10;;;22.80;96.70;;;;;;5050432;28;20084;-81
2022/06/20 01:30:14;;;;;;;5.72;1.73;;;22.90;96.90;;;;;;5111679;28;20508;-80
2022/06/20 01:32:42;;;;;;;9.15;1.92;;;22.60;96.90;;;;;;4991973;28;20059;-80
2022/06/20 01:35:12;;;;;;;7.22;2.05;;;22.60;97.60;;;;;;4991189;28;20396;-81
2022/06/20 01:37:42;;;;;;;6.63;2.05;;;22.60;97.30;;;;;;4991611;28;20539;-81
2022/06/20 01:40:12;;;;;;;7.35;2.53;;;22.50;97.30;;;;;;4991876;28;20025;-80
2022/06/20 01:42:39;;;;;;;5.55;1.77;;;22.50;97.30;;;;;;4991654;28;20031;-80
2022/06/20 01:48:00;;;;;;;6.13;1.65;;;22.50;97.20;;;;;;5011617;28;20082;-80
2022/06/20 01:50:26;;;;;;;13.23;1.95;;;22.50;97.30;;;;;;5011343;28;20033;-80
2022/06/20 01:52:52;;;;;;;6.93;1.80;;;22.40;97.20;;;;;;5011204;28;20030;-80
2022/06/20 01:55:21;;;;;;;8.20;2.08;;;22.40;97.00;;;;;;5011365;28;20075;-80
2022/06/20 01:57:51;;;;;;;8.88;2.38;;;22.30;97.40;;;;;;5010957;28;20124;-80
2022/06/20 02:00:20;;;;;;;8.15;2.38;;;22.30;97.50;;;;;;5009808;28;20036;-81
2022/06/20 02:02:54;;;;;;;4.97;2.08;;;22.30;97.30;;;;;;5010973;28;20026;-80
2022/06/20 02:05:24;;;;;;;7.63;1.85;;;22.30;97.30;;;;;;5009948;28;20026;-80
2022/06/20 02:07:51;;;;;;;9.15;2.55;;;22.30;97.40;;;;;;5010366;28;20060;-80
2022/06/20 02:10:43;;;;;;;6.15;2.40;;;22.30;97.70;;;;;;5010939;28;20029;-80
2022/06/20 02:13:10;;;;;;;8.13;2.50;;;22.30;97.80;;;;;;5010056;28;20128;-80
2022/06/20 02:15:37;;;;;;;9.93;3.00;;;22.30;97.90;;;;;;5010894;28;20030;-80
2022/06/20 02:18:07;;;;;;;10.13;2.83;;;22.40;97.70;;;;;;5012670;28;20038;-80
2022/06/20 02:20:45;;;;;;;8.40;2.45;;;22.50;97.60;;;;;;5010812;28;20022;-80
2022/06/20 02:23:19;;;;;;;7.43;2.70;;;22.40;97.60;;;;;;5010999;28;20049;-80
2022/06/20 02:25:49;;;;;;;9.75;3.33;;;22.50;97.30;;;;;;5011578;28;21386;-80
2022/06/20 02:28:25;;;;;;;9.70;2.53;;;22.50;97.60;;;;;;5010365;28;20030;-80
2022/06/20 02:30:51;;;;;;;6.80;2.70;;;22.50;97.30;;;;;;5010607;28;20515;-80
2022/06/20 02:33:23;;;;;;;6.50;2.17;;;22.50;97.30;;;;;;5010711;28;20430;-80
2022/06/20 02:35:49;;;;;;;6.93;2.60;;;22.50;97.20;;;;;;5010898;28;20032;-80
2022/06/20 02:38:15;;;;;;;12.27;2.47;;;22.50;97.20;;;;;;5010618;28;20079;-80
2022/06/20 02:40:42;;;;;;;8.35;2.50;;;22.50;97.20;;;;;;5010143;28;20565;-80
2022/06/20 02:43:20;;;;;;;10.25;2.38;;;22.60;97.10;;;;;;5112386;27;20029;-80
2022/06/20 02:45:46;;;;;;;8.55;2.55;;;22.60;97.10;;;;;;5009606;28;20018;-80
2022/06/20 02:48:14;;;;;;;6.05;2.35;;;22.50;97.10;;;;;;5010417;28;20105;-80
2022/06/20 02:50:45;;;;;;;7.57;2.42;;;22.50;97.30;;;;;;5010282;28;20552;-80
2022/06/20 02:53:23;;;;;;;9.07;2.58;;;22.50;97.50;;;;;;5010716;28;20483;-81
2022/06/20 02:55:51;;;;;;;8.48;2.13;;;22.40;97.60;;;;;;5009821;28;20487;-80
2022/06/20 02:58:21;;;;;;;5.82;2.60;;;22.20;97.90;;;;;;5010116;28;20029;-80
2022/06/20 03:01:01;;;;;;;10.02;3.60;;;22.40;97.90;;;;;;5010122;28;20033;-80
2022/06/20 03:03:34;;;;;;;10.15;2.75;;;22.40;97.90;;;;;;5010189;28;20026;-80
2022/06/20 03:06:02;;;;;;;10.85;2.72;;;22.40;98.00;;;;;;5010259;28;20137;-81
2022/06/20 03:08:28;;;;;;;11.70;2.80;;;22.30;98.00;;;;;;5081129;28;20518;-80
2022/06/20 03:10:55;;;;;;;7.80;2.38;;;22.50;97.90;;;;;;5110564;28;20030;-80
2022/06/20 03:13:22;;;;;;;10.93;2.88;;;22.40;97.90;;;;;;5102840;28;20047;-80
2022/06/20 03:15:50;;;;;;;8.35;2.65;;;22.30;97.90;;;;;;5010185;28;20034;-80
2022/06/20 03:18:19;;;;;;;9.77;2.38;;;22.40;98.00;;;;;;5009824;28;20540;-80
2022/06/20 03:20:45;;;;;;;8.30;2.55;;;22.30;97.50;;;;;;5007786;28;20057;-80
2022/06/20 03:23:29;;;;;;;10.05;2.25;;;22.20;98.00;;;;;;5010042;28;20075;-80
2022/06/20 03:25:57;;;;;;;10.82;2.90;;;22.20;98.30;;;;;;5009287;28;20101;-80
2022/06/20 03:28:24;;;;;;;13.77;3.40;;;22.20;97.70;;;;;;5009725;28;20053;-80
2022/06/20 03:30:51;;;;;;;10.13;3.40;;;22.10;97.70;;;;;;5009530;28;20034;-80
2022/06/20 03:33:21;;;;;;;6.35;2.58;;;22.10;98.00;;;;;;5009001;28;20395;-80
2022/06/20 03:36:01;;;;;;;7.97;2.90;;;22.10;97.80;;;;;;5009849;28;20029;-80
2022/06/20 03:38:28;;;;;;;9.95;2.97;;;22.20;97.60;;;;;;5009622;28;20113;-80
2022/06/20 03:40:53;;;;;;;10.52;3.15;;;22.10;97.70;;;;;;5009966;28;20453;-80
2022/06/20 03:43:23;;;;;;;10.70;3.33;;;22.10;97.50;;;;;;5111558;28;20016;-79
2022/06/20 03:46:30;;;;;;;11.00;3.17;;;22.20;97.30;;;;;;5112557;28;20074;-80
2022/06/20 03:49:18;;;;;;;11.18;3.13;;;22.20;97.20;;;;;;5112285;28;20024;-80
2022/06/20 03:51:53;;;;;;;11.25;3.13;;;22.30;97.00;;;;;;5112324;28;20068;-80
2022/06/20 03:54:26;;;;;;;13.20;3.63;;;22.10;96.90;;;;;;5112272;28;20381;-80
2022/06/20 03:57:01;;;;;;;10.25;3.25;;;22.10;97.20;;;;;;5056010;28;20131;-80
2022/06/20 03:59:34;;;;;;;9.52;3.75;;;22.20;96.90;;;;;;5009829;28;20072;-80
2022/06/20 04:02:34;;;;;;;16.27;3.35;;;22.20;96.90;;;;;;5007847;28;20033;-80
2022/06/20 04:05:20;;;;;;;14.40;3.80;;;22.10;96.60;;;;;;5009307;28;20049;-80
2022/06/20 04:08:18;;;;;;;12.63;3.20;;;22.10;96.80;;;;;;5008597;28;20053;-80
2022/06/20 04:10:58;;;;;;;15.02;4.10;;;22.20;96.60;;;;;;5010064;28;20018;-80
2022/06/20 04:13:42;;;;;;;14.20;4.35;;;22.10;96.60;;;;;;5008397;28;20030;-81
2022/06/20 04:16:43;;;;;;;11.95;4.00;;;22.00;97.10;;;;;;5009044;28;20014;-83
2022/06/20 04:19:16;;;;;;;15.40;4.03;;;22.10;96.90;;;;;;5010615;28;20117;-82
2022/06/20 04:21:53;;;;;;;11.60;3.45;;;22.10;96.80;;;;;;5110858;27;20025;-82
2022/06/20 04:24:29;;;;;;;13.40;3.85;;;22.10;96.80;;;;;;5008599;28;20026;-81
2022/06/20 04:27:05;;;;;;;12.38;3.33;;;22.00;97.50;;;;;;5008857;28;20018;-82
2022/06/20 04:29:54;;;;;;;14.70;4.50;;;22.10;97.20;;;;;;5009915;28;20033;-79
2022/06/20 04:32:23;;;;;;;10.50;3.97;;;21.90;97.00;;;;;;5011264;28;20422;-79
2022/06/20 04:35:09;;;;;;;12.57;3.75;;;21.70;97.80;;;;;;5012292;28;20104;-80
2022/06/20 04:37:42;;;;;;;15.80;3.70;;;21.90;97.30;;;;;;5011943;28;20103;-80
2022/06/20 04:40:26;;;;;;;12.48;4.35;;;22.00;97.20;;;;;;5011225;28;20057;-79
2022/06/20 04:42:53;;;;;;;14.35;5.03;;;21.80;97.30;;;;;;5018701;28;20029;-79
2022/06/20 04:45:26;;;;;;;13.98;4.00;;;21.80;97.30;;;;;;5011238;28;20062;-76
2022/06/20 04:48:01;;;;;;;10.38;3.67;;;21.80;96.80;;;;;;4994252;28;20545;-79
2022/06/20 04:50:29;;;;;;;12.15;4.43;;;21.90;97.10;;;;;;4992913;28;20033;-75
2022/06/20 04:52:59;;;;;;;14.10;4.32;;;22.00;96.90;;;;;;4992007;28;20050;-78
2022/06/20 04:55:27;;;;;;;15.27;4.38;;;22.00;96.60;;;;;;4996455;28;20112;-80
2022/06/20 04:57:57;;;;;;;17.98;4.65;;;21.90;96.60;;;;;;5011665;28;20151;-76
2022/06/20 05:00:34;;;;;;;11.45;3.78;;;21.80;96.70;;;;;;5010412;28;20029;-79
2022/06/20 05:02:59;;;;;;;13.23;4.57;;;21.90;96.70;;;;;;5011194;28;20022;-78
2022/06/20 05:05:30;;;;;;;12.02;4.05;;;21.90;97.00;;;;;;5010833;28;20030;-79
2022/06/20 05:07:56;;;;;;;18.25;4.28;;;21.90;97.40;;;;;;5011346;28;20073;-79
2022/06/20 05:10:33;;;;;;;11.75;3.38;;;21.70;97.70;;;;;;5012861;28;20467;-80
2022/06/20 05:13:08;;;;;;;15.95;3.72;;;21.50;98.20;;;;;;5062623;27;20073;-79
2022/06/20 05:15:41;;;;;;;11.88;4.35;;;21.70;98.30;;;;;;5012128;28;20484;-79
2022/06/20 06:54:15;;;;;;;16.45;5.30;;;21.90;98.40;;;;;;5735339;23;20053;-80
2022/06/20 06:56:49;;;;;;;15.65;4.60;;;21.70;98.90;;;;;;5008574;28;20026;-78
2022/06/20 06:59:28;;;;;;;19.42;5.18;;;21.70;99.00;;;;;;4974933;28;20049;-78
2022/06/20 07:01:57;;;;;;;11.80;4.85;;;21.80;99.00;;;;;;4986044;28;20510;-78
2022/06/20 07:04:28;;;;;;;15.50;5.25;;;21.80;99.10;;;;;;4979536;28;20543;-77
2022/06/20 07:07:24;;;;;;;14.68;4.90;;;21.80;99.00;;;;;;4974665;28;20519;-78
2022/06/20 07:09:53;;;;;;;14.80;5.47;;;21.70;99.50;;;;;;4974134;28;20484;-77
2022/06/20 07:12:36;;;;;;;25.35;5.28;;;21.70;99.00;;;;;;4972220;28;20407;-78
2022/06/20 07:15:07;;;;;;;17.00;6.00;;;21.70;99.70;;;;;;4974380;28;20033;-78
2022/06/20 07:17:44;;;;;;;19.55;6.35;;;21.80;99.60;;;;;;4972788;28;20034;-77
2022/06/20 07:20:11;;;;;;;20.83;6.45;;;21.60;99.90;;;;;;4977091;28;21828;-78
2022/06/20 07:22:40;;;;;;;23.95;6.35;;;21.70;99.80;;;;;;4982922;28;20038;-78
2022/06/20 07:25:12;;;;;;;17.77;6.20;;;21.90;99.50;;;;;;4993351;28;20029;-78
2022/06/20 07:27:47;;;;;;;19.45;7.32;;;21.60;99.90;;;;;;4984269;28;20072;-78
2022/06/20 07:30:20;;;;;;;17.92;6.70;;;21.50;99.90;;;;;;4982204;28;20091;-78
2022/06/20 07:32:51;;;;;;;26.48;8.65;;;21.60;99.90;;;;;;4973289;28;20388;-78
2022/06/20 07:35:23;;;;;;;26.17;8.75;;;21.30;99.90;;;;;;4986791;28;20073;-77
2022/06/20 07:38:18;;;;;;;18.80;8.55;;;21.60;99.90;;;;;;4989187;28;20034;-78
2022/06/20 07:40:52;;;;;;;16.30;8.18;;;21.80;99.90;;;;;;4968744;28;20057;-78
2022/06/20 07:43:42;;;;;;;26.02;8.77;;;21.90;99.90;;;;;;4973202;28;20023;-78
2022/06/20 07:46:32;;;;;;;18.50;7.68;;;21.90;99.90;;;;;;4989720;28;20357;-77
2022/06/20 07:49:16;;;;;;;19.88;8.30;;;21.70;99.90;;;;;;4977999;28;20030;-78
2022/06/20 07:51:45;;;;;;;21.90;7.75;;;21.80;99.90;;;;;;4974250;28;20061;-78
2022/06/20 07:54:40;;;;;;;20.80;9.38;;;22.10;99.90;;;;;;4976621;28;20582;-77
2022/06/20 07:57:33;;;;;;;24.13;8.57;;;21.70;99.90;;;;;;4986353;28;20113;-78
2022/06/20 08:00:06;;;;;;;19.52;8.43;;;21.70;99.90;;;;;;4973990;28;20145;-77
2022/06/20 08:02:46;;;;;;;22.58;8.90;;;21.60;99.90;;;;;;4972574;28;20130;-77
2022/06/20 08:05:23;;;;;;;25.10;8.25;;;21.80;99.90;;;;;;4980250;28;20144;-77
2022/06/20 08:07:58;;;;;;;37.70;8.75;;;22.00;99.90;;;;;;4992010;28;20030;-78
2022/06/20 08:10:34;;;;;;;24.27;8.20;;;22.10;99.80;;;;;;4989171;28;20109;-77
2022/06/20 08:13:13;;;;;;;18.50;8.10;;;22.20;99.80;;;;;;4988018;28;20593;-79
2022/06/20 08:15:50;;;;;;;21.42;8.65;;;22.10;99.90;;;;;;4995828;28;20058;-78
2022/06/20 08:18:17;;;;;;;24.05;8.93;;;22.40;99.10;;;;;;4987603;28;20160;-78
2022/06/20 08:20:46;;;;;;;25.75;9.57;;;22.70;98.30;;;;;;4974866;28;20027;-77
2022/06/20 08:23:23;;;;;;;22.70;9.52;;;22.90;98.30;;;;;;4981939;28;20106;-77
2022/06/20 08:25:59;;;;;;;21.85;8.57;;;22.90;98.00;;;;;;4976396;28;20034;-78
2022/06/20 08:28:34;;;;;;;31.00;10.00;;;22.80;97.50;;;;;;4973278;28;20022;-77
2022/06/20 08:31:16;;;;;;;23.27;9.45;;;22.80;97.60;;;;;;4988274;28;20188;-82
2022/06/20 08:34:16;;;;;;;21.08;9.40;;;22.80;97.40;;;;;;4991755;28;20480;-77
2022/06/20 08:37:02;;;;;;;20.75;8.15;;;22.80;97.80;;;;;;4931091;29;20047;-78
2022/06/20 08:39:38;;;;;;;22.38;8.77;;;22.80;97.80;;;;;;4922811;29;20603;-78
2022/06/20 08:42:42;;;;;;;23.65;8.55;;;22.90;97.40;;;;;;4928309;29;20115;-78
2022/06/20 08:45:51;;;;;;;25.00;7.70;;;22.80;97.70;;;;;;4877070;29;20033;-78
2022/06/20 08:48:32;;;;;;;26.95;8.38;;;22.80;98.00;;;;;;4836139;29;20039;-77
2022/06/20 08:51:25;;;;;;;20.67;9.48;;;22.50;98.00;;;;;;4835837;29;20416;-78
2022/06/20 08:54:26;;;;;;;25.77;8.27;;;22.70;98.10;;;;;;4837847;29;20518;-78
2022/06/20 08:57:35;;;;;;;24.95;8.23;;;22.50;98.60;;;;;;4803293;29;20046;-77
2022/06/20 09:00:17;;;;;;;30.40;9.30;;;22.80;97.80;;;;;;4811142;29;20062;-77
2022/06/20 09:03:20;;;;;;;18.20;9.15;;;22.90;97.40;;;;;;4761704;30;20062;-77
2022/06/20 09:05:50;;;;;;;16.58;8.82;;;23.00;97.40;;;;;;4780285;29;20425;-77
2022/06/20 09:08:20;;;;;;;27.50;9.05;;;23.00;96.90;;;;;;4782592;29;20122;-77
2022/06/20 09:11:14;;;;;;;18.30;8.32;;;22.90;96.80;;;;;;4784147;29;20073;-77
2022/06/20 09:14:04;;;;;;;18.80;7.97;;;22.90;97.10;;;;;;4835313;29;20133;-77
2022/06/20 09:16:35;;;;;;;26.35;8.57;;;22.80;97.00;;;;;;4836266;29;20132;-77
2022/06/20 09:19:19;;;;;;;24.88;8.55;;;23.00;97.20;;;;;;4839560;29;20057;-77
2022/06/20 09:22:15;;;;;;;29.02;8.98;;;22.80;96.70;;;;;;4841733;29;20057;-77
2022/06/20 09:25:21;;;;;;;19.35;8.77;;;22.80;96.90;;;;;;4837626;29;20120;-76
2022/06/20 09:28:17;;;;;;;24.50;8.85;;;22.80;97.00;;;;;;4842236;29;20523;-77
2022/06/20 09:31:06;;;;;;;26.20;8.52;;;22.80;97.70;;;;;;4836395;29;20050;-77
2022/06/20 09:34:03;;;;;;;17.90;8.57;;;22.90;97.80;;;;;;4871350;29;20510;-77
2022/06/20 09:36:43;;;;;;;19.70;7.55;;;22.90;97.20;;;;;;4916914;29;20071;-77
2022/06/20 09:39:53;;;;;;;14.85;7.35;;;23.00;97.20;;;;;;4936202;29;20035;-77
2022/06/20 09:42:42;;;;;;;20.65;8.98;;;23.00;96.90;;;;;;4955746;29;20035;-77
2022/06/20 09:45:23;;;;;;;21.52;8.50;;;22.90;97.00;;;;;;4951070;28;20030;-77
2022/06/20 09:47:58;;;;;;;23.90;7.88;;;22.90;97.30;;;;;;4952285;29;20427;-78
2022/06/20 09:50:56;;;;;;;31.00;8.48;;;23.00;97.10;;;;;;4948583;29;20045;-78
2022/06/20 09:53:35;;;;;;;19.55;7.47;;;23.10;96.70;;;;;;4948503;29;20030;-77
2022/06/20 09:56:21;;;;;;;16.92;7.53;;;23.20;96.80;;;;;;4948982;29;20066;-77
2022/06/20 09:59:05;;;;;;;19.33;7.85;;;23.30;96.50;;;;;;4953601;28;20437;-77
2022/06/20 10:01:37;;;;;;;18.27;6.88;;;23.40;96.10;;;;;;4953567;29;20539;-77
2022/06/20 10:04:11;;;;;;;15.63;7.35;;;23.40;96.10;;;;;;4940087;28;20028;-77
2022/06/20 10:06:43;;;;;;;21.15;7.70;;;23.40;96.00;;;;;;4952063;29;20032;-77
2022/06/20 10:09:23;;;;;;;24.17;7.82;;;23.40;96.00;;;;;;4956536;28;20030;-77
2022/06/20 10:12:07;;;;;;;23.73;7.65;;;23.40;95.70;;;;;;4952769;28;20031;-77
2022/06/20 10:14:50;;;;;;;24.55;8.07;;;23.40;96.20;;;;;;4948773;28;20034;-78
2022/06/20 10:17:40;;;;;;;21.85;7.88;;;23.50;95.80;;;;;;4952884;29;20034;-77
2022/06/20 10:20:18;;;;;;;17.48;7.40;;;23.80;95.70;;;;;;4969903;28;20051;-77
2022/06/20 10:23:09;;;;;;;17.35;6.82;;;24.00;94.90;;;;;;4935785;29;20034;-77
2022/06/20 10:25:53;;;;;;;17.50;7.60;;;24.00;94.80;;;;;;4953179;29;20051;-77
2022/06/20 10:28:27;;;;;;;18.50;7.35;;;24.20;94.70;;;;;;4936525;29;20569;-77
2022/06/20 10:31:31;;;;;;;18.20;6.53;;;24.40;94.20;;;;;;4953233;28;20118;-77
2022/06/20 10:34:17;;;;;;;18.55;6.93;;;24.50;94.10;;;;;;4931876;29;20039;-77
2022/06/20 10:36:50;;;;;;;20.50;7.05;;;24.30;94.90;;;;;;4930039;29;20175;-77
2022/06/20 10:39:23;;;;;;;21.02;7.70;;;24.50;94.30;;;;;;4931519;29;20031;-77
2022/06/20 10:42:07;;;;;;;23.73;8.77;;;24.60;94.00;;;;;;4915590;29;20065;-77
2022/06/20 10:44:49;;;;;;;15.27;7.00;;;24.60;93.80;;;;;;4916231;29;20506;-78
2022/06/20 10:47:31;;;;;;;22.50;7.68;;;24.90;93.50;;;;;;4915917;29;20422;-78
2022/06/20 10:50:21;;;;;;;21.85;7.47;;;25.00;93.30;;;;;;4915153;29;20031;-78
2022/06/20 10:52:51;;;;;;;19.45;7.65;;;25.30;92.40;;;;;;4934263;29;20099;-78
2022/06/20 10:55:51;;;;;;;20.80;7.25;;;25.50;92.80;;;;;;4926158;29;20059;-78
2022/06/20 10:58:43;;;;;;;18.48;6.93;;;25.50;91.90;;;;;;4914986;29;20055;-77
2022/06/20 11:01:21;;;;;;;24.35;6.85;;;25.60;92.40;;;;;;4931360;29;20713;-77
2022/06/20 11:04:12;;;;;;;20.80;6.38;;;25.50;92.70;;;;;;4933345;29;20058;-77
2022/06/20 11:06:56;;;;;;;;;;;25.80;91.90;;;;;;4934690;29;20597;-77
2022/06/20 11:09:28;;;;;;;21.55;6.78;;;25.80;91.70;;;;;;4955011;28;19906;-77
2022/06/20 11:12:08;;;;;;;26.30;7.47;;;26.00;91.60;;;;;;4955363;29;20035;-77
2022/06/20 11:14:53;;;;;;;25.08;7.43;;;26.10;91.50;;;;;;4941921;28;20032;-77
2022/06/20 11:17:27;;;;;;;27.23;7.75;;;26.30;91.50;;;;;;4950949;28;20050;-77
2022/06/20 11:20:00;;;;;;;27.23;7.05;;;26.10;91.30;;;;;;4938903;29;20035;-77
2022/06/20 11:22:37;;;;;;;20.98;6.97;;;26.20;91.00;;;;;;4938191;28;20466;-78
2022/06/20 11:25:25;;;;;;;19.70;7.45;;;27.10;89.60;;;;;;4951080;29;20044;-82
2022/06/20 11:28:09;;;;;;;15.43;6.82;;;27.50;89.30;;;;;;4954841;29;20110;-77
2022/06/20 11:31:07;;;;;;;25.10;7.45;;;27.40;88.60;;;;;;4952960;29;20492;-77
2022/06/20 11:36:35;;;;;;;19.30;7.13;;;28.40;85.70;;;;;;4945748;29;20043;-77
2022/06/20 11:39:23;;;;;;;17.27;6.05;;;28.20;85.30;;;;;;4952881;29;20031;-78
2022/06/20 11:41:52;;;;;;;26.90;7.18;;;28.40;85.50;;;;;;4942418;28;20042;-77
2022/06/20 11:44:30;;;;;;;16.52;6.03;;;28.90;84.70;;;;;;4938965;29;20046;-77
2022/06/20 11:47:13;;;;;;;14.40;5.85;;;28.60;84.50;;;;;;4950312;29;20066;-78
2022/06/20 11:50:16;;;;;;;21.10;6.82;;;28.20;85.40;;;;;;4953009;29;20071;-78
2022/06/20 11:53:01;;;;;;;18.95;6.35;;;28.10;85.10;;;;;;4950177;29;20033;-78
2022/06/20 11:55:43;;;;;;;21.63;5.65;;;28.10;86.50;;;;;;4947497;29;20394;-78
2022/06/20 11:58:27;;;;;;;17.38;5.80;;;28.30;84.80;;;;;;4948251;29;20427;-78
2022/06/20 12:01:03;;;;;;;19.48;6.30;;;28.00;85.80;;;;;;4934687;29;20035;-78
2022/06/20 12:03:45;;;;;;;16.77;6.28;;;27.80;85.20;;;;;;4945911;29;21561;-78
2022/06/20 12:06:17;;;;;;;18.23;6.10;;;27.40;87.30;;;;;;4953239;29;20551;-77
2022/06/20 12:08:53;;;;;;;19.40;6.20;;;27.70;87.20;;;;;;4949283;29;20035;-78
2022/06/20 12:11:29;;;;;;;20.15;6.10;;;28.30;85.70;;;;;;4939552;29;20055;-78
2022/06/20 12:14:43;;;;;;;21.38;6.25;;;29.00;84.30;;;;;;4936278;29;20023;-78
2022/06/20 12:17:27;;;;;;;17.58;6.03;;;29.70;81.20;;;;;;4948498;29;20693;-78
2022/06/20 12:23:20;;;;;;;20.20;6.13;;;28.70;82.50;;;;;;4934991;29;20131;-78
2022/06/20 12:26:11;;;;;;;16.50;6.07;;;28.60;83.30;;;;;;4933980;29;20059;-78
2022/06/20 12:28:40;;;;;;;21.02;5.40;;;28.60;83.90;;;;;;4942622;29;20034;-78
2022/06/20 12:31:10;;;;;;;15.80;6.07;;;28.80;81.90;;;;;;4938962;28;20111;-78
2022/06/20 12:33:58;;;;;;;15.45;6.63;;;28.60;82.90;;;;;;4954054;28;20030;-78
2022/06/20 12:36:46;;;;;;;18.38;6.57;;;28.50;84.40;;;;;;4891667;29;20051;-78
2022/06/20 12:39:32;;;;;;;23.65;6.35;;;28.90;81.00;;;;;;4886603;29;20064;-78
2022/06/20 12:42:05;;;;;;;18.73;6.03;;;28.80;83.80;;;;;;4890130;29;20041;-78
2022/06/20 12:45:05;;;;;;;17.88;5.65;;;28.70;83.20;;;;;;4886376;29;20037;-78
2022/06/20 12:48:04;;;;;;;21.33;6.28;;;28.90;82.50;;;;;;4876220;29;20093;-78
2022/06/20 12:50:47;;;;;;;20.95;6.50;;;29.50;81.50;;;;;;4894530;29;20495;-78
2022/06/20 12:53:19;;;;;;;16.77;6.50;;;29.40;80.80;;;;;;4894545;29;20040;-78
2022/06/20 12:56:22;;;;;;;15.15;5.45;;;29.90;80.10;;;;;;4884598;29;20156;-78
2022/06/20 12:59:12;;;;;;;20.60;5.60;;;29.80;79.50;;;;;;4895897;29;20041;-78
2022/06/20 13:01:53;;;;;;;20.48;6.88;;;29.60;78.90;;;;;;4881293;29;20051;-78
2022/06/20 13:04:21;;;;;;;16.30;5.90;;;29.20;80.10;;;;;;4878377;29;20085;-78
2022/06/20 13:07:17;;;;;;;22.48;6.72;;;29.40;80.40;;;;;;4882423;29;20119;-78
2022/06/20 13:09:56;;;;;;;16.55;6.45;;;29.20;81.40;;;;;;4890392;29;20076;-78
2022/06/20 13:12:43;;;;;;;15.75;6.85;;;29.10;81.50;;;;;;4898273;29;20390;-78
2022/06/20 13:15:27;;;;;;;22.30;5.93;;;28.80;81.70;;;;;;4946674;29;20030;-78
2022/06/20 13:18:07;;;;;;;16.23;5.43;;;29.00;81.70;;;;;;4942331;29;20031;-78
2022/06/20 13:20:49;;;;;;;14.80;6.03;;;28.90;82.60;;;;;;4947246;28;20043;-78
2022/06/20 13:23:14;;;;;;;20.75;6.32;;;29.10;82.30;;;;;;4942230;29;20027;-78
2022/06/20 13:26:18;;;;;;;23.48;5.57;;;29.10;81.90;;;;;;4942961;28;20618;-78
2022/06/20 13:28:54;;;;;;;19.25;5.65;;;28.90;82.60;;;;;;4949253;29;20043;-78
2022/06/20 13:31:38;;;;;;;16.83;5.72;;;28.80;82.20;;;;;;4950107;28;20493;-78
2022/06/20 13:34:18;;;;;;;19.20;5.70;;;29.30;80.40;;;;;;4955724;28;20023;-78
2022/06/20 13:36:44;;;;;;;20.25;5.68;;;29.80;78.10;;;;;;4951578;28;20038;-78
2022/06/20 13:39:47;;;;;;;16.23;4.50;;;30.20;78.00;;;;;;4945672;29;20104;-78
2022/06/20 13:42:32;;;;;;;17.27;5.15;;;29.80;77.70;;;;;;4945908;29;20032;-83
2022/06/20 13:45:53;;;;;;;20.38;5.18;;;29.60;77.30;;;;;;4936013;29;20024;-79
2022/06/20 13:48:24;;;;;;;17.00;5.57;;;30.10;76.80;;;;;;4931813;29;20043;-79
2022/06/20 13:51:08;;;;;;;14.90;4.45;;;30.20;74.40;;;;;;4931626;29;20092;-79
2022/06/20 13:53:54;;;;;;;19.48;5.07;;;30.70;74.80;;;;;;4915680;29;20056;-79
2022/06/20 13:56:22;;;;;;;16.15;4.78;;;30.20;75.10;;;;;;4927668;29;20067;-79
2022/06/20 13:59:13;;;;;;;16.95;4.82;;;30.30;75.20;;;;;;4910278;29;20051;-79
2022/06/20 14:01:44;;;;;;;23.27;5.28;;;30.80;75.00;;;;;;4917328;29;20051;-78
2022/06/20 14:04:15;;;;;;;13.52;4.18;;;31.40;74.20;;;;;;4932552;29;20036;-80
2022/06/20 14:06:53;;;;;;;23.80;5.40;;;30.30;74.60;;;;;;4915791;29;20023;-79
2022/06/20 14:09:37;;;;;;;22.48;4.80;;;30.10;75.20;;;;;;4921852;29;20039;-79
2022/06/20 14:12:07;;;;;;;22.58;5.30;;;30.10;75.60;;;;;;4930700;29;20248;-79
2022/06/20 14:14:39;;;;;;;19.05;5.65;;;30.00;75.70;;;;;;4932490;29;20023;-79
2022/06/20 14:17:20;;;;;;;19.33;5.30;;;29.60;76.70;;;;;;4933031;29;20120;-78
2022/06/20 14:19:57;;;;;;;;;;;29.70;76.00;;;;;;4933533;29;20215;-79
2022/06/20 14:22:31;;;;;;;21.35;4.70;;;29.50;75.70;;;;;;4937356;29;19911;-79
2022/06/20 14:24:58;;;;;;;18.35;4.72;;;29.70;76.00;;;;;;4936489;29;20048;-78
2022/06/20 14:27:30;;;;;;;19.15;4.65;;;30.00;77.00;;;;;;4953687;29;20031;-80
2022/06/20 14:29:59;;;;;;;21.95;5.20;;;30.10;76.10;;;;;;4948847;28;20030;-79
2022/06/20 14:32:33;;;;;;;18.70;4.95;;;29.80;77.60;;;;;;4937271;29;20401;-80
2022/06/20 16:03:16;;;;;;;19.42;5.85;;;28.60;83.00;;;;;;5142389;23;20107;-74
2022/06/20 16:05:55;;;;;;;20.63;5.45;;;28.80;83.30;;;;;;4953188;28;20035;-79
2022/06/20 16:08:46;;;;;;;18.45;4.97;;;28.70;83.00;;;;;;4953955;28;20038;-79
2022/06/20 16:11:17;;;;;;;23.27;5.30;;;28.80;83.50;;;;;;4945351;29;20022;-78
2022/06/20 16:13:44;;;;;;;;;;;28.90;82.80;;;;;;4953647;28;20038;-78
2022/06/20 16:16:13;;;;;;;17.73;5.10;;;28.80;83.00;;;;;;4952455;29;20339;-79
2022/06/20 16:18:45;;;;;;;23.08;5.65;;;28.90;83.70;;;;;;4953570;28;20464;-77
2022/06/20 16:21:25;;;;;;;16.27;5.07;;;28.70;83.70;;;;;;4944041;29;20086;-78
2022/06/20 16:24:15;;;;;;;17.13;5.05;;;28.40;84.90;;;;;;4954813;28;20441;-78
2022/06/20 16:26:48;;;;;;;23.80;6.07;;;28.30;85.40;;;;;;4939748;28;20043;-78
2022/06/20 16:29:19;;;;;;;17.23;5.32;;;28.30;86.00;;;;;;4955033;28;20074;-78
2022/06/20 16:31:58;;;;;;;18.05;5.55;;;27.90;86.50;;;;;;4957808;28;20062;-77
2022/06/20 16:34:32;;;;;;;20.10;5.53;;;27.60;88.10;;;;;;4957720;29;20125;-78
2022/06/20 16:37:10;;;;;;;24.98;5.53;;;27.80;88.00;;;;;;4957989;29;20027;-78
2022/06/20 16:39:36;;;;;;;18.83;5.28;;;28.00;87.90;;;;;;4958071;28;20409;-78
2022/06/20 16:42:26;;;;;;;17.88;6.07;;;28.00;87.90;;;;;;4956979;29;20027;-79
2022/06/20 16:45:29;;;;;;;14.68;4.78;;;28.40;87.80;;;;;;4957734;28;20070;-79
2022/06/20 16:48:32;;;;;;;28.30;5.68;;;28.00;87.60;;;;;;4956478;28;20027;-77
2022/06/20 16:51:29;;;;;;;18.80;5.47;;;27.80;88.30;;;;;;4956164;29;20035;-79